sensor_id;sensor_type;location;lat;lon;timestamp;temperature;humidity
5846;DHT22;2949;50.778;7.094;2024-02-21T00:00:10;9.00;99.90
5846;DHT22;2949;50.778;7.094;2024-02-21T00:02:36;8.90;99.90
5846;DHT22;2949;50.778;7.094;2024-02-21T00:05:02;8.90;99.90
5846;DHT22;2949;50.778;7.094;2024-02-21T00:07:28;8.90;99.90
5846;DHT22;2949;50.778;7.094;2024-02-21T00:09:53;8.90;99.90
5846;DHT22;2949;50.778;7.094;2024-02-21T00:12:19;8.90;99.90
5846;DHT22;2949;50.778;7.094;2024-02-21T00:14:44;8.90;99.90
5846;DHT22;2949;50.778;7.094;2024-02-21T00:17:10;8.90;99.90
5846;DHT22;2949;50.778;7.094;2024-02-21T00:19:36;8.90;99.90
5846;DHT22;2949;50.778;7.094;2024-02-21T00:22:01;8.80;99.90
5846;DHT22;2949;50.778;7.094;2024-02-21T00:24:27;8.80;99.90
5846;DHT22;2949;50.778;7.094;2024-02-21T00:26:53;8.80;99.90
5846;DHT22;2949;50.778;7.094;2024-02-21T00:29:19;8.80;99.90
5846;DHT22;2949;50.778;7.094;2024-02-21T00:31:44;8.80;99.90
5846;DHT22;2949;50.778;7.094;2024-02-21T00:34:10;8.80;99.90
5846;DHT22;2949;50.778;7.094;2024-02-21T00:36:36;8.80;99.90
5846;DHT22;2949;50.778;7.094;2024-02-21T00:39:02;8.80;99.90
5846;DHT22;2949;50.778;7.094;2024-02-21T00:41:28;8.80;99.90
5846;DHT22;2949;50.778;7.094;2024-02-21T00:43:53;8.80;99.90
5846;DHT22;2949;50.778;7.094;2024-02-21T00:46:19;8.80;99.90
5846;DHT22;2949;50.778;7.094;2024-02-21T00:48:44;8.80;99.90
5846;DHT22;2949;50.778;7.094;2024-02-21T00:51:10;8.80;99.90
5846;DHT22;2949;50.778;7.094;2024-02-21T00:53:35;8.80;99.90
5846;DHT22;2949;50.778;7.094;2024-02-21T00:56:04;8.80;99.90
5846;DHT22;2949;50.778;7.094;2024-02-21T00:58:30;8.80;99.90
5846;DHT22;2949;50.778;7.094;2024-02-21T01:00:56;8.80;99.90
5846;DHT22;2949;50.778;7.094;2024-02-21T01:03:21;8.70;99.90
5846;DHT22;2949;50.778;7.094;2024-02-21T01:05:47;8.70;99.90
5846;DHT22;2949;50.778;7.094;2024-02-21T01:08:12;8.70;99.90
5846;DHT22;2949;50.778;7.094;2024-02-21T01:10:38;8.70;99.90
5846;DHT22;2949;50.778;7.094;2024-02-21T01:13:03;8.70;99.90
5846;DHT22;2949;50.778;7.094;2024-02-21T01:15:29;8.70;99.90
5846;DHT22;2949;50.778;7.094;2024-02-21T01:17:54;8.70;99.90
5846;DHT22;2949;50.778;7.094;2024-02-21T01:20:20;8.70;99.90
5846;DHT22;2949;50.778;7.094;2024-02-21T01:22:46;8.70;99.90
5846;DHT22;2949;50.778;7.094;2024-02-21T01:25:12;8.70;99.90
5846;DHT22;2949;50.778;7.094;2024-02-21T01:27:37;8.60;99.90
5846;DHT22;2949;50.778;7.094;2024-02-21T01:30:03;8.60;99.90
5846;DHT22;2949;50.778;7.094;2024-02-21T01:32:29;8.60;99.90
5846;DHT22;2949;50.778;7.094;2024-02-21T01:34:54;8.50;99.90
5846;DHT22;2949;50.778;7.094;2024-02-21T01:37:20;8.50;99.90
5846;DHT22;2949;50.778;7.094;2024-02-21T01:39:45;8.50;99.90
5846;DHT22;2949;50.778;7.094;2024-02-21T01:42:11;8.50;99.90
5846;DHT22;2949;50.778;7.094;2024-02-21T01:44:36;8.60;99.90
5846;DHT22;2949;50.778;7.094;2024-02-21T01:47:03;8.60;99.90
5846;DHT22;2949;50.778;7.094;2024-02-21T01:49:29;8.60;99.90
5846;DHT22;2949;50.778;7.094;2024-02-21T01:51:55;8.60;99.90
5846;DHT22;2949;50.778;7.094;2024-02-21T01:54:21;8.60;99.90
5846;DHT22;2949;50.778;7.094;2024-02-21T01:56:47;8.60;99.90
5846;DHT22;2949;50.778;7.094;2024-02-21T01:59:13;8.60;99.90
5846;DHT22;2949;50.778;7.094;2024-02-21T02:01:41;8.60;99.90
5846;DHT22;2949;50.778;7.094;2024-02-21T02:04:07;8.50;99.90
5846;DHT22;2949;50.778;7.094;2024-02-21T02:06:32;8.60;99.90
5846;DHT22;2949;50.778;7.094;2024-02-21T02:08:58;8.60;99.90
5846;DHT22;2949;50.778;7.094;2024-02-21T02:11:24;8.60;99.90
5846;DHT22;2949;50.778;7.094;2024-02-21T02:13:49;8.60;99.90
5846;DHT22;2949;50.778;7.094;2024-02-21T02:16:15;8.60;99.90
5846;DHT22;2949;50.778;7.094;2024-02-21T02:18:40;8.50;99.90
5846;DHT22;2949;50.778;7.094;2024-02-21T02:21:13;8.50;99.90
5846;DHT22;2949;50.778;7.094;2024-02-21T02:23:39;8.50;99.90
5846;DHT22;2949;50.778;7.094;2024-02-21T02:26:06;8.50;99.90
5846;DHT22;2949;50.778;7.094;2024-02-21T02:28:32;8.50;99.90
5846;DHT22;2949;50.778;7.094;2024-02-21T02:30:58;8.50;99.90
5846;DHT22;2949;50.778;7.094;2024-02-21T02:33:23;8.50;99.90
5846;DHT22;2949;50.778;7.094;2024-02-21T02:35:49;8.40;99.90
5846;DHT22;2949;50.778;7.094;2024-02-21T02:38:14;8.50;99.90
5846;DHT22;2949;50.778;7.094;2024-02-21T02:40:40;8.50;99.90
5846;DHT22;2949;50.778;7.094;2024-02-21T02:43:06;8.50;99.90
5846;DHT22;2949;50.778;7.094;2024-02-21T02:45:32;8.50;99.90
5846;DHT22;2949;50.778;7.094;2024-02-21T02:47:58;8.50;99.90
5846;DHT22;2949;50.778;7.094;2024-02-21T02:50:25;8.40;99.90
5846;DHT22;2949;50.778;7.094;2024-02-21T02:52:51;8.50;99.90
5846;DHT22;2949;50.778;7.094;2024-02-21T02:55:16;8.50;99.90
5846;DHT22;2949;50.778;7.094;2024-02-21T02:57:42;8.50;99.90
5846;DHT22;2949;50.778;7.094;2024-02-21T03:00:10;8.50;99.90
5846;DHT22;2949;50.778;7.094;2024-02-21T03:02:38;8.50;99.90
5846;DHT22;2949;50.778;7.094;2024-02-21T03:05:18;8.50;99.90
5846;DHT22;2949;50.778;7.094;2024-02-21T03:07:44;8.40;99.90
5846;DHT22;2949;50.778;7.094;2024-02-21T03:10:10;8.40;99.90
5846;DHT22;2949;50.778;7.094;2024-02-21T03:12:36;8.40;99.90
5846;DHT22;2949;50.778;7.094;2024-02-21T03:15:02;8.40;99.90
5846;DHT22;2949;50.778;7.094;2024-02-21T03:17:28;8.40;99.90
5846;DHT22;2949;50.778;7.094;2024-02-21T03:19:54;8.40;99.90
5846;DHT22;2949;50.778;7.094;2024-02-21T03:22:21;8.40;99.90
5846;DHT22;2949;50.778;7.094;2024-02-21T03:24:47;8.30;99.90
5846;DHT22;2949;50.778;7.094;2024-02-21T03:27:12;8.30;99.90
5846;DHT22;2949;50.778;7.094;2024-02-21T03:29:38;8.30;99.90
5846;DHT22;2949;50.778;7.094;2024-02-21T03:32:03;8.20;99.90
5846;DHT22;2949;50.778;7.094;2024-02-21T03:34:29;8.20;99.90
5846;DHT22;2949;50.778;7.094;2024-02-21T03:36:54;8.10;99.90
5846;DHT22;2949;50.778;7.094;2024-02-21T03:39:20;8.00;99.90
5846;DHT22;2949;50.778;7.094;2024-02-21T03:41:46;8.00;99.90
5846;DHT22;2949;50.778;7.094;2024-02-21T03:44:12;8.00;99.90
5846;DHT22;2949;50.778;7.094;2024-02-21T03:46:37;8.00;99.90
5846;DHT22;2949;50.778;7.094;2024-02-21T03:49:03;8.00;99.90
5846;DHT22;2949;50.778;7.094;2024-02-21T03:51:28;8.00;99.90
5846;DHT22;2949;50.778;7.094;2024-02-21T03:53:54;8.00;99.90
5846;DHT22;2949;50.778;7.094;2024-02-21T03:56:19;8.00;99.90
5846;DHT22;2949;50.778;7.094;2024-02-21T03:58:45;8.00;99.90
5846;DHT22;2949;50.778;7.094;2024-02-21T04:01:10;8.00;99.90
5846;DHT22;2949;50.778;7.094;2024-02-21T04:03:36;8.00;99.90
5846;DHT22;2949;50.778;7.094;2024-02-21T04:06:01;8.00;99.90
5846;DHT22;2949;50.778;7.094;2024-02-21T04:08:27;8.00;99.90
5846;DHT22;2949;50.778;7.094;2024-02-21T04:10:52;8.10;99.90
5846;DHT22;2949;50.778;7.094;2024-02-21T04:13:18;8.10;99.90
5846;DHT22;2949;50.778;7.094;2024-02-21T04:15:43;8.00;99.90
5846;DHT22;2949;50.778;7.094;2024-02-21T04:18:09;8.00;99.90
5846;DHT22;2949;50.778;7.094;2024-02-21T04:20:34;8.00;99.90
5846;DHT22;2949;50.778;7.094;2024-02-21T04:23:00;8.00;99.90
5846;DHT22;2949;50.778;7.094;2024-02-21T04:25:26;8.10;99.90
5846;DHT22;2949;50.778;7.094;2024-02-21T04:27:52;8.10;99.90
5846;DHT22;2949;50.778;7.094;2024-02-21T04:30:17;8.10;99.90
5846;DHT22;2949;50.778;7.094;2024-02-21T04:32:43;8.10;99.90
5846;DHT22;2949;50.778;7.094;2024-02-21T04:35:09;8.10;99.90
5846;DHT22;2949;50.778;7.094;2024-02-21T04:37:34;8.10;99.90
5846;DHT22;2949;50.778;7.094;2024-02-21T04:40:00;8.10;99.90
5846;DHT22;2949;50.778;7.094;2024-02-21T04:42:26;8.10;99.90
5846;DHT22;2949;50.778;7.094;2024-02-21T04:44:51;8.10;99.90
5846;DHT22;2949;50.778;7.094;2024-02-21T04:47:17;8.10;99.90
5846;DHT22;2949;50.778;7.094;2024-02-21T04:49:44;8.10;99.90
5846;DHT22;2949;50.778;7.094;2024-02-21T04:52:10;8.10;99.90
5846;DHT22;2949;50.778;7.094;2024-02-21T04:54:35;8.10;99.90
5846;DHT22;2949;50.778;7.094;2024-02-21T04:57:01;8.10;99.90
5846;DHT22;2949;50.778;7.094;2024-02-21T04:59:26;8.10;99.90
5846;DHT22;2949;50.778;7.094;2024-02-21T05:01:52;8.10;99.90
5846;DHT22;2949;50.778;7.094;2024-02-21T05:04:18;8.10;99.90
5846;DHT22;2949;50.778;7.094;2024-02-21T05:06:43;8.10;99.90
5846;DHT22;2949;50.778;7.094;2024-02-21T05:09:09;8.10;99.90
5846;DHT22;2949;50.778;7.094;2024-02-21T05:11:36;8.10;99.90
5846;DHT22;2949;50.778;7.094;2024-02-21T05:14:01;8.10;99.90
5846;DHT22;2949;50.778;7.094;2024-02-21T05:16:27;8.10;99.90
5846;DHT22;2949;50.778;7.094;2024-02-21T05:18:52;8.10;99.90
5846;DHT22;2949;50.778;7.094;2024-02-21T05:21:18;8.10;99.90
5846;DHT22;2949;50.778;7.094;2024-02-21T05:23:44;8.20;99.90
5846;DHT22;2949;50.778;7.094;2024-02-21T05:26:09;8.10;99.90
5846;DHT22;2949;50.778;7.094;2024-02-21T05:28:35;8.20;99.90
5846;DHT22;2949;50.778;7.094;2024-02-21T05:31:01;8.20;99.90
5846;DHT22;2949;50.778;7.094;2024-02-21T05:33:26;8.20;99.90
5846;DHT22;2949;50.778;7.094;2024-02-21T05:35:52;8.20;99.90
5846;DHT22;2949;50.778;7.094;2024-02-21T05:38:17;8.20;99.90
5846;DHT22;2949;50.778;7.094;2024-02-21T05:40:44;8.20;99.90
5846;DHT22;2949;50.778;7.094;2024-02-21T05:43:10;8.20;99.90
5846;DHT22;2949;50.778;7.094;2024-02-21T05:45:35;8.20;99.90
5846;DHT22;2949;50.778;7.094;2024-02-21T05:48:01;8.20;99.90
5846;DHT22;2949;50.778;7.094;2024-02-21T05:50:28;8.20;99.90
5846;DHT22;2949;50.778;7.094;2024-02-21T05:52:57;8.20;99.90
5846;DHT22;2949;50.778;7.094;2024-02-21T05:55:22;8.20;99.90
5846;DHT22;2949;50.778;7.094;2024-02-21T05:57:48;8.20;99.90
5846;DHT22;2949;50.778;7.094;2024-02-21T06:00:15;8.20;99.90
5846;DHT22;2949;50.778;7.094;2024-02-21T06:02:41;8.20;99.90
5846;DHT22;2949;50.778;7.094;2024-02-21T06:05:07;8.30;99.90
5846;DHT22;2949;50.778;7.094;2024-02-21T06:07:33;8.20;99.90
5846;DHT22;2949;50.778;7.094;2024-02-21T06:10:02;8.30;99.90
5846;DHT22;2949;50.778;7.094;2024-02-21T06:12:28;8.30;99.90
5846;DHT22;2949;50.778;7.094;2024-02-21T06:14:54;8.30;99.90
5846;DHT22;2949;50.778;7.094;2024-02-21T06:17:19;8.30;99.90
5846;DHT22;2949;50.778;7.094;2024-02-21T06:19:45;8.30;99.90
5846;DHT22;2949;50.778;7.094;2024-02-21T06:22:10;8.30;99.90
5846;DHT22;2949;50.778;7.094;2024-02-21T06:24:36;8.30;99.90
5846;DHT22;2949;50.778;7.094;2024-02-21T06:27:05;8.30;99.90
5846;DHT22;2949;50.778;7.094;2024-02-21T06:29:32;8.30;99.90
5846;DHT22;2949;50.778;7.094;2024-02-21T06:31:58;8.30;99.90
5846;DHT22;2949;50.778;7.094;2024-02-21T06:34:23;8.30;99.90
5846;DHT22;2949;50.778;7.094;2024-02-21T06:36:49;8.30;99.90
5846;DHT22;2949;50.778;7.094;2024-02-21T06:39:15;8.30;99.90
5846;DHT22;2949;50.778;7.094;2024-02-21T06:41:41;8.30;99.90
5846;DHT22;2949;50.778;7.094;2024-02-21T06:44:06;8.40;99.90
5846;DHT22;2949;50.778;7.094;2024-02-21T06:46:32;8.30;99.90
5846;DHT22;2949;50.778;7.094;2024-02-21T06:48:59;8.40;99.90
5846;DHT22;2949;50.778;7.094;2024-02-21T06:51:26;8.40;99.90
5846;DHT22;2949;50.778;7.094;2024-02-21T06:53:51;8.30;99.90
5846;DHT22;2949;50.778;7.094;2024-02-21T06:56:17;8.30;99.90
5846;DHT22;2949;50.778;7.094;2024-02-21T06:58:43;8.40;99.90
5846;DHT22;2949;50.778;7.094;2024-02-21T07:01:09;8.40;99.90
5846;DHT22;2949;50.778;7.094;2024-02-21T07:03:34;8.50;99.90
5846;DHT22;2949;50.778;7.094;2024-02-21T07:06:00;8.50;99.90
5846;DHT22;2949;50.778;7.094;2024-02-21T07:08:25;8.50;99.90
5846;DHT22;2949;50.778;7.094;2024-02-21T07:10:51;8.50;99.90
5846;DHT22;2949;50.778;7.094;2024-02-21T07:13:17;8.50;99.90
5846;DHT22;2949;50.778;7.094;2024-02-21T07:15:43;8.50;99.90
5846;DHT22;2949;50.778;7.094;2024-02-21T07:18:08;8.50;99.90
5846;DHT22;2949;50.778;7.094;2024-02-21T07:20:34;8.60;99.90
5846;DHT22;2949;50.778;7.094;2024-02-21T07:23:02;8.70;99.90
5846;DHT22;2949;50.778;7.094;2024-02-21T07:25:28;8.60;99.90
5846;DHT22;2949;50.778;7.094;2024-02-21T07:27:53;8.70;99.90
5846;DHT22;2949;50.778;7.094;2024-02-21T07:30:19;8.70;99.90
5846;DHT22;2949;50.778;7.094;2024-02-21T07:32:44;8.70;99.90
5846;DHT22;2949;50.778;7.094;2024-02-21T07:35:10;8.70;99.90
5846;DHT22;2949;50.778;7.094;2024-02-21T07:37:37;8.70;99.90
5846;DHT22;2949;50.778;7.094;2024-02-21T07:40:05;8.70;99.90
5846;DHT22;2949;50.778;7.094;2024-02-21T07:42:31;8.80;99.90
5846;DHT22;2949;50.778;7.094;2024-02-21T07:44:56;8.80;99.90
5846;DHT22;2949;50.778;7.094;2024-02-21T07:47:22;8.80;99.90
5846;DHT22;2949;50.778;7.094;2024-02-21T07:49:47;8.80;99.90
5846;DHT22;2949;50.778;7.094;2024-02-21T07:52:14;8.90;99.90
5846;DHT22;2949;50.778;7.094;2024-02-21T07:54:40;8.90;99.90
5846;DHT22;2949;50.778;7.094;2024-02-21T07:57:07;8.90;99.90
5846;DHT22;2949;50.778;7.094;2024-02-21T07:59:32;8.90;99.90
5846;DHT22;2949;50.778;7.094;2024-02-21T08:01:58;9.00;99.90
5846;DHT22;2949;50.778;7.094;2024-02-21T08:04:24;8.90;99.90
5846;DHT22;2949;50.778;7.094;2024-02-21T08:06:53;9.00;99.90
5846;DHT22;2949;50.778;7.094;2024-02-21T08:09:21;9.00;99.90
5846;DHT22;2949;50.778;7.094;2024-02-21T08:11:47;9.10;99.90
5846;DHT22;2949;50.778;7.094;2024-02-21T08:14:12;9.20;99.90
5846;DHT22;2949;50.778;7.094;2024-02-21T08:16:40;9.20;99.90
5846;DHT22;2949;50.778;7.094;2024-02-21T08:19:06;9.30;99.90
5846;DHT22;2949;50.778;7.094;2024-02-21T08:21:31;9.40;99.90
5846;DHT22;2949;50.778;7.094;2024-02-21T08:23:57;9.40;99.90
5846;DHT22;2949;50.778;7.094;2024-02-21T08:26:22;9.40;99.90
5846;DHT22;2949;50.778;7.094;2024-02-21T08:28:48;9.50;99.90
5846;DHT22;2949;50.778;7.094;2024-02-21T08:31:19;9.60;99.90
5846;DHT22;2949;50.778;7.094;2024-02-21T08:33:45;9.60;99.90
5846;DHT22;2949;50.778;7.094;2024-02-21T08:36:17;9.60;99.90
5846;DHT22;2949;50.778;7.094;2024-02-21T08:38:44;9.70;99.90
5846;DHT22;2949;50.778;7.094;2024-02-21T08:41:09;9.80;99.90
5846;DHT22;2949;50.778;7.094;2024-02-21T08:43:35;9.90;99.90
5846;DHT22;2949;50.778;7.094;2024-02-21T08:46:01;10.00;99.90
5846;DHT22;2949;50.778;7.094;2024-02-21T08:48:26;10.20;99.90
5846;DHT22;2949;50.778;7.094;2024-02-21T08:50:52;10.30;99.90
5846;DHT22;2949;50.778;7.094;2024-02-21T08:53:19;10.30;99.90
5846;DHT22;2949;50.778;7.094;2024-02-21T08:55:45;10.50;99.90
5846;DHT22;2949;50.778;7.094;2024-02-21T08:58:11;10.60;99.90
5846;DHT22;2949;50.778;7.094;2024-02-21T09:00:36;10.80;99.90
5846;DHT22;2949;50.778;7.094;2024-02-21T09:03:02;11.00;99.90
5846;DHT22;2949;50.778;7.094;2024-02-21T09:05:28;11.30;99.90
5846;DHT22;2949;50.778;7.094;2024-02-21T09:07:54;11.90;99.90
5846;DHT22;2949;50.778;7.094;2024-02-21T09:10:19;12.60;99.90
5846;DHT22;2949;50.778;7.094;2024-02-21T09:12:45;13.20;99.90
5846;DHT22;2949;50.778;7.094;2024-02-21T09:15:10;13.70;99.90
5846;DHT22;2949;50.778;7.094;2024-02-21T09:17:36;14.20;99.90
5846;DHT22;2949;50.778;7.094;2024-02-21T09:20:02;14.50;99.90
5846;DHT22;2949;50.778;7.094;2024-02-21T09:22:29;14.70;99.90
5846;DHT22;2949;50.778;7.094;2024-02-21T09:24:54;15.00;99.90
5846;DHT22;2949;50.778;7.094;2024-02-21T09:27:21;15.00;99.90
5846;DHT22;2949;50.778;7.094;2024-02-21T09:29:47;14.70;99.90
5846;DHT22;2949;50.778;7.094;2024-02-21T09:32:13;14.40;99.90
5846;DHT22;2949;50.778;7.094;2024-02-21T09:34:39;14.00;99.90
5846;DHT22;2949;50.778;7.094;2024-02-21T09:37:05;13.60;99.90
5846;DHT22;2949;50.778;7.094;2024-02-21T09:39:30;13.30;99.90
5846;DHT22;2949;50.778;7.094;2024-02-21T09:42:01;13.10;99.90
5846;DHT22;2949;50.778;7.094;2024-02-21T09:44:35;13.00;99.90
5846;DHT22;2949;50.778;7.094;2024-02-21T09:47:09;13.10;99.90
5846;DHT22;2949;50.778;7.094;2024-02-21T09:49:35;13.20;99.90
5846;DHT22;2949;50.778;7.094;2024-02-21T09:52:05;13.20;99.90
5846;DHT22;2949;50.778;7.094;2024-02-21T09:54:33;13.40;99.90
5846;DHT22;2949;50.778;7.094;2024-02-21T09:57:00;13.40;99.90
5846;DHT22;2949;50.778;7.094;2024-02-21T09:59:27;13.60;99.90
5846;DHT22;2949;50.778;7.094;2024-02-21T10:01:53;13.60;99.90
5846;DHT22;2949;50.778;7.094;2024-02-21T10:04:20;13.60;99.90
5846;DHT22;2949;50.778;7.094;2024-02-21T10:06:46;13.70;99.90
5846;DHT22;2949;50.778;7.094;2024-02-21T10:09:25;13.90;99.90
5846;DHT22;2949;50.778;7.094;2024-02-21T10:11:53;13.80;99.90
5846;DHT22;2949;50.778;7.094;2024-02-21T10:14:19;13.80;99.90
5846;DHT22;2949;50.778;7.094;2024-02-21T10:16:56;14.10;99.90
5846;DHT22;2949;50.778;7.094;2024-02-21T10:19:23;14.20;99.90
5846;DHT22;2949;50.778;7.094;2024-02-21T10:22:18;14.30;99.90
5846;DHT22;2949;50.778;7.094;2024-02-21T10:24:45;14.50;99.90
5846;DHT22;2949;50.778;7.094;2024-02-21T10:27:11;14.70;99.90
5846;DHT22;2949;50.778;7.094;2024-02-21T10:29:37;14.90;99.90
5846;DHT22;2949;50.778;7.094;2024-02-21T10:32:07;14.80;99.90
5846;DHT22;2949;50.778;7.094;2024-02-21T10:34:34;14.60;99.90
5846;DHT22;2949;50.778;7.094;2024-02-21T10:37:03;14.40;99.90
5846;DHT22;2949;50.778;7.094;2024-02-21T10:39:34;14.50;99.90
5846;DHT22;2949;50.778;7.094;2024-02-21T10:42:01;14.70;99.90
5846;DHT22;2949;50.778;7.094;2024-02-21T10:44:30;15.10;99.90
5846;DHT22;2949;50.778;7.094;2024-02-21T10:46:57;15.40;99.90
5846;DHT22;2949;50.778;7.094;2024-02-21T10:49:24;15.60;99.90
5846;DHT22;2949;50.778;7.094;2024-02-21T10:52:13;15.80;99.90
5846;DHT22;2949;50.778;7.094;2024-02-21T10:55:27;16.10;99.90
5846;DHT22;2949;50.778;7.094;2024-02-21T10:57:32;16.20;99.90
5846;DHT22;2949;50.778;7.094;2024-02-21T10:59:59;16.00;99.90
5846;DHT22;2949;50.778;7.094;2024-02-21T11:02:27;15.80;99.90
5846;DHT22;2949;50.778;7.094;2024-02-21T11:04:55;15.60;99.90
5846;DHT22;2949;50.778;7.094;2024-02-21T11:07:21;15.80;99.90
5846;DHT22;2949;50.778;7.094;2024-02-21T11:09:51;15.70;99.90
5846;DHT22;2949;50.778;7.094;2024-02-21T11:12:21;15.70;99.90
5846;DHT22;2949;50.778;7.094;2024-02-21T11:14:47;15.80;99.90
5846;DHT22;2949;50.778;7.094;2024-02-21T11:17:20;15.80;99.90
5846;DHT22;2949;50.778;7.094;2024-02-21T11:19:51;15.80;99.90
5846;DHT22;2949;50.778;7.094;2024-02-21T11:22:18;15.70;99.90
5846;DHT22;2949;50.778;7.094;2024-02-21T11:24:45;15.70;99.90
5846;DHT22;2949;50.778;7.094;2024-02-21T11:27:19;15.50;99.90
5846;DHT22;2949;50.778;7.094;2024-02-21T11:29:56;15.20;99.90
5846;DHT22;2949;50.778;7.094;2024-02-21T11:32:22;15.30;99.90
5846;DHT22;2949;50.778;7.094;2024-02-21T11:34:58;15.10;99.90
5846;DHT22;2949;50.778;7.094;2024-02-21T11:37:27;15.00;99.90
5846;DHT22;2949;50.778;7.094;2024-02-21T11:39:57;14.80;99.90
5846;DHT22;2949;50.778;7.094;2024-02-21T11:42:24;14.70;99.90
5846;DHT22;2949;50.778;7.094;2024-02-21T11:44:50;14.70;99.90
5846;DHT22;2949;50.778;7.094;2024-02-21T11:47:15;14.50;99.90
5846;DHT22;2949;50.778;7.094;2024-02-21T11:49:48;14.40;99.90
5846;DHT22;2949;50.778;7.094;2024-02-21T11:52:22;14.40;99.90
5846;DHT22;2949;50.778;7.094;2024-02-21T11:54:51;14.20;99.90
5846;DHT22;2949;50.778;7.094;2024-02-21T11:57:17;14.20;99.90
5846;DHT22;2949;50.778;7.094;2024-02-21T11:59:44;14.20;99.90
5846;DHT22;2949;50.778;7.094;2024-02-21T12:02:11;14.10;99.90
5846;DHT22;2949;50.778;7.094;2024-02-21T12:04:36;14.00;99.90
5846;DHT22;2949;50.778;7.094;2024-02-21T12:07:02;14.00;99.90
5846;DHT22;2949;50.778;7.094;2024-02-21T12:09:30;13.80;99.90
5846;DHT22;2949;50.778;7.094;2024-02-21T12:12:05;13.60;99.90
5846;DHT22;2949;50.778;7.094;2024-02-21T12:14:33;13.50;99.90
5846;DHT22;2949;50.778;7.094;2024-02-21T12:16:59;13.40;99.90
5846;DHT22;2949;50.778;7.094;2024-02-21T12:19:25;13.30;99.90
5846;DHT22;2949;50.778;7.094;2024-02-21T12:21:50;13.30;99.90
5846;DHT22;2949;50.778;7.094;2024-02-21T12:24:21;13.30;99.90
5846;DHT22;2949;50.778;7.094;2024-02-21T12:26:48;13.40;99.90
5846;DHT22;2949;50.778;7.094;2024-02-21T12:29:14;13.40;99.90
5846;DHT22;2949;50.778;7.094;2024-02-21T12:31:39;13.30;99.90
5846;DHT22;2949;50.778;7.094;2024-02-21T12:34:05;13.30;99.90
5846;DHT22;2949;50.778;7.094;2024-02-21T12:36:35;13.40;99.90
5846;DHT22;2949;50.778;7.094;2024-02-21T12:39:01;13.60;99.90
5846;DHT22;2949;50.778;7.094;2024-02-21T12:41:28;13.60;99.90
5846;DHT22;2949;50.778;7.094;2024-02-21T12:43:55;13.70;99.90
5846;DHT22;2949;50.778;7.094;2024-02-21T12:46:21;13.70;99.90
5846;DHT22;2949;50.778;7.094;2024-02-21T12:48:47;13.60;99.90
5846;DHT22;2949;50.778;7.094;2024-02-21T12:51:13;13.50;99.90
5846;DHT22;2949;50.778;7.094;2024-02-21T12:53:38;13.50;99.90
5846;DHT22;2949;50.778;7.094;2024-02-21T12:56:05;13.60;99.90
5846;DHT22;2949;50.778;7.094;2024-02-21T12:58:32;13.50;99.90
5846;DHT22;2949;50.778;7.094;2024-02-21T13:00:58;13.60;99.90
5846;DHT22;2949;50.778;7.094;2024-02-21T13:03:23;13.60;99.90
5846;DHT22;2949;50.778;7.094;2024-02-21T13:05:49;13.60;99.90
5846;DHT22;2949;50.778;7.094;2024-02-21T13:08:14;13.70;99.90
5846;DHT22;2949;50.778;7.094;2024-02-21T13:10:40;13.70;99.90
5846;DHT22;2949;50.778;7.094;2024-02-21T13:13:05;13.70;99.90
5846;DHT22;2949;50.778;7.094;2024-02-21T13:15:31;13.70;99.90
5846;DHT22;2949;50.778;7.094;2024-02-21T13:17:57;13.60;99.90
5846;DHT22;2949;50.778;7.094;2024-02-21T13:20:23;13.70;99.90
5846;DHT22;2949;50.778;7.094;2024-02-21T13:22:49;13.60;99.90
5846;DHT22;2949;50.778;7.094;2024-02-21T13:25:14;13.50;99.90
5846;DHT22;2949;50.778;7.094;2024-02-21T13:27:43;13.40;99.90
5846;DHT22;2949;50.778;7.094;2024-02-21T13:30:10;13.30;99.90
5846;DHT22;2949;50.778;7.094;2024-02-21T13:32:35;13.30;99.90
5846;DHT22;2949;50.778;7.094;2024-02-21T13:35:01;13.20;99.90
5846;DHT22;2949;50.778;7.094;2024-02-21T13:37:27;13.10;99.90
5846;DHT22;2949;50.778;7.094;2024-02-21T13:39:53;12.90;99.90
5846;DHT22;2949;50.778;7.094;2024-02-21T13:42:19;12.70;99.90
5846;DHT22;2949;50.778;7.094;2024-02-21T13:44:45;12.60;99.90
5846;DHT22;2949;50.778;7.094;2024-02-21T13:47:14;12.60;99.90
5846;DHT22;2949;50.778;7.094;2024-02-21T13:49:40;12.60;99.90
5846;DHT22;2949;50.778;7.094;2024-02-21T13:52:06;12.60;99.90
5846;DHT22;2949;50.778;7.094;2024-02-21T13:54:31;12.60;99.90
5846;DHT22;2949;50.778;7.094;2024-02-21T13:56:57;12.60;99.90
5846;DHT22;2949;50.778;7.094;2024-02-21T13:59:22;12.50;99.90
5846;DHT22;2949;50.778;7.094;2024-02-21T14:01:48;12.50;99.90
5846;DHT22;2949;50.778;7.094;2024-02-21T14:04:13;12.30;99.90
5846;DHT22;2949;50.778;7.094;2024-02-21T14:06:39;12.20;99.90
5846;DHT22;2949;50.778;7.094;2024-02-21T14:09:09;12.20;99.90
5846;DHT22;2949;50.778;7.094;2024-02-21T14:11:35;12.20;99.90
5846;DHT22;2949;50.778;7.094;2024-02-21T14:14:00;12.20;99.90
5846;DHT22;2949;50.778;7.094;2024-02-21T14:16:26;12.20;99.90
5846;DHT22;2949;50.778;7.094;2024-02-21T14:18:51;12.20;99.90
5846;DHT22;2949;50.778;7.094;2024-02-21T14:21:17;12.20;99.90
5846;DHT22;2949;50.778;7.094;2024-02-21T14:23:42;12.30;99.90
5846;DHT22;2949;50.778;7.094;2024-02-21T14:26:08;12.30;99.90
5846;DHT22;2949;50.778;7.094;2024-02-21T14:28:34;12.30;99.90
5846;DHT22;2949;50.778;7.094;2024-02-21T14:31:00;12.20;99.90
5846;DHT22;2949;50.778;7.094;2024-02-21T14:33:29;12.30;99.90
5846;DHT22;2949;50.778;7.094;2024-02-21T14:35:56;12.30;99.90
5846;DHT22;2949;50.778;7.094;2024-02-21T14:38:21;12.30;99.90
5846;DHT22;2949;50.778;7.094;2024-02-21T14:40:47;12.40;99.90
5846;DHT22;2949;50.778;7.094;2024-02-21T14:43:13;12.40;99.90
5846;DHT22;2949;50.778;7.094;2024-02-21T14:45:38;12.40;99.90
5846;DHT22;2949;50.778;7.094;2024-02-21T14:48:05;12.30;99.90
5846;DHT22;2949;50.778;7.094;2024-02-21T14:50:31;12.30;99.90
5846;DHT22;2949;50.778;7.094;2024-02-21T14:52:56;12.20;99.90
5846;DHT22;2949;50.778;7.094;2024-02-21T14:55:22;12.10;99.90
5846;DHT22;2949;50.778;7.094;2024-02-21T14:57:48;12.20;99.90
5846;DHT22;2949;50.778;7.094;2024-02-21T15:00:14;12.10;99.90
5846;DHT22;2949;50.778;7.094;2024-02-21T15:02:39;12.10;99.90
5846;DHT22;2949;50.778;7.094;2024-02-21T15:05:06;12.10;99.90
5846;DHT22;2949;50.778;7.094;2024-02-21T15:07:32;12.10;99.90
5846;DHT22;2949;50.778;7.094;2024-02-21T15:09:58;12.10;99.90
5846;DHT22;2949;50.778;7.094;2024-02-21T15:12:24;12.10;99.90
5846;DHT22;2949;50.778;7.094;2024-02-21T15:14:50;12.20;99.90
5846;DHT22;2949;50.778;7.094;2024-02-21T15:17:16;12.20;99.90
5846;DHT22;2949;50.778;7.094;2024-02-21T15:19:43;12.20;99.90
5846;DHT22;2949;50.778;7.094;2024-02-21T15:22:10;12.10;99.90
5846;DHT22;2949;50.778;7.094;2024-02-21T15:24:40;12.10;99.90
5846;DHT22;2949;50.778;7.094;2024-02-21T15:27:06;12.10;99.90
5846;DHT22;2949;50.778;7.094;2024-02-21T15:29:32;12.10;99.90
5846;DHT22;2949;50.778;7.094;2024-02-21T15:31:57;12.00;99.90
5846;DHT22;2949;50.778;7.094;2024-02-21T15:34:23;11.90;99.90
5846;DHT22;2949;50.778;7.094;2024-02-21T15:36:48;11.90;99.90
5846;DHT22;2949;50.778;7.094;2024-02-21T15:39:14;11.90;99.90
5846;DHT22;2949;50.778;7.094;2024-02-21T15:41:40;11.80;99.90
5846;DHT22;2949;50.778;7.094;2024-02-21T15:44:05;11.70;99.90
5846;DHT22;2949;50.778;7.094;2024-02-21T15:46:31;11.70;99.90
5846;DHT22;2949;50.778;7.094;2024-02-21T15:49:00;11.60;99.90
5846;DHT22;2949;50.778;7.094;2024-02-21T15:51:25;11.60;99.90
5846;DHT22;2949;50.778;7.094;2024-02-21T15:53:51;11.50;99.90
5846;DHT22;2949;50.778;7.094;2024-02-21T15:56:17;11.50;99.90
5846;DHT22;2949;50.778;7.094;2024-02-21T15:58:43;11.40;99.90
5846;DHT22;2949;50.778;7.094;2024-02-21T16:01:08;11.40;99.90
5846;DHT22;2949;50.778;7.094;2024-02-21T16:03:37;11.30;99.90